Rhodesville, Connecticut
Current Conditions -  °F | °C
As of 2:52 PM on Monday 24 Nov 2014 (Local Time) from KIJD Reporting Station
Haze Haze  
Wind Chill: 63°   Ceiling: 700
Heat Index: 63°   Visibility: 5mi
Dew Point: 60°   Wind: 13mph
Humidity: 90%   Direction: 200°SSW
Pressure: 29.62"   Gusts: 23mph
Location:  41.91°N, 71.8739°W
Report Text: KIJD 241952Z AUTO 20011G20KT 5SM BR OVC007 17/16 A2962 RMK AO2 CIG 006V011 SLP029 T01720156
Loading
Personal Weather Stations






























Interactive Weather Map New forecast layout! Learn more

10-Day Weather Forecast

Advertisements
Track Severe Weather on mobile